Time;durP1;ratioP1;P1;durP2;ratioP2;P2;SDS_P1;SDS_P2;PMS_P1;PMS_P2;Temp;Humidity;BMP_temperature;BMP_pressure;BME280_temperature;BME280_humidity;BME280_pressure;Samples;Min_cycle;Max_cycle;Signal;HPM_P1;HPM_P2
2021/11/26 00:02:21;;;;;;;9.20;1.35;;;4.00;99.90;;;;;;4981804;28;20058;-78
2021/11/26 00:04:48;;;;;;;1.27;1.17;;;4.20;99.90;;;;;;4994757;28;20054;-80
2021/11/26 00:07:14;;;;;;;0.93;0.93;;;4.10;99.90;;;;;;4989110;28;20527;-79
2021/11/26 00:09:40;;;;;;;;;;;4.50;99.90;;;;;;4984196;28;20056;-82
2021/11/26 00:12:06;;;;;;;0.80;0.80;;;4.10;99.90;;;;;;5022171;28;20003;-81
2021/11/26 00:14:34;;;;;;;1.63;1.40;;;4.10;99.90;;;;;;5008801;28;20442;-80
2021/11/26 00:17:02;;;;;;;0.80;0.80;;;4.10;99.90;;;;;;5011719;28;20042;-78
2021/11/26 00:19:30;;;;;;;0.70;0.70;;;4.00;99.90;;;;;;5013459;28;20053;-83
2021/11/26 00:21:57;;;;;;;3.30;1.35;;;4.00;99.90;;;;;;5041902;28;20045;-80
2021/11/26 00:24:23;;;;;;;1.85;1.10;;;4.00;99.90;;;;;;4989445;28;20042;-82
2021/11/26 00:26:50;;;;;;;1.27;1.17;;;3.90;99.90;;;;;;5008587;28;20406;-80
2021/11/26 00:29:17;;;;;;;1.55;0.90;;;4.20;99.90;;;;;;5012695;28;20109;-81
2021/11/26 00:31:43;;;;;;;1.23;1.15;;;3.90;99.90;;;;;;5003641;28;20053;-79
2021/11/26 00:34:10;;;;;;;1.02;1.00;;;3.90;99.90;;;;;;5012986;28;20048;-82
2021/11/26 00:36:36;;;;;;;2.65;1.52;;;3.90;99.90;;;;;;5000304;28;20102;-78
2021/11/26 00:39:03;;;;;;;;;;;3.90;99.90;;;;;;5012129;28;20056;-79
2021/11/26 00:41:28;;;;;;;0.95;0.95;;;3.90;99.90;;;;;;5015975;28;20441;-79
2021/11/26 00:43:54;;;;;;;1.15;1.13;;;3.30;99.90;;;;;;5022414;28;20175;-80
2021/11/26 00:46:20;;;;;;;1.10;1.10;;;3.80;99.90;;;;;;4994383;28;20502;-78
2021/11/26 00:48:46;;;;;;;0.80;0.80;;;3.80;99.90;;;;;;5016373;28;20045;-79
2021/11/26 00:51:12;;;;;;;1.05;1.05;;;3.80;99.90;;;;;;5001010;28;20037;-80
2021/11/26 00:53:38;;;;;;;0.95;0.95;;;3.80;99.90;;;;;;5016645;28;20045;-81
2021/11/26 00:56:04;;;;;;;0.93;0.93;;;4.10;99.90;;;;;;5021699;28;20153;-81
2021/11/26 00:58:31;;;;;;;3.30;0.90;;;3.70;99.90;;;;;;4994482;28;20046;-82
2021/11/26 01:00:57;;;;;;;1.55;1.45;;;3.70;99.90;;;;;;4997547;28;20045;-79
2021/11/26 01:03:23;;;;;;;;;;;3.70;99.90;;;;;;5003523;28;20132;-77
2021/11/26 01:05:49;;;;;;;0.70;0.70;;;3.60;99.90;;;;;;5016209;28;20051;-80
2021/11/26 01:08:16;;;;;;;1.02;0.93;;;3.50;99.90;;;;;;5014966;28;20041;-78
2021/11/26 01:10:43;;;;;;;6.47;1.48;;;3.50;99.90;;;;;;5016882;28;20050;-79
2021/11/26 01:13:09;;;;;;;2.13;1.92;;;3.50;99.90;;;;;;5017310;28;20122;-81
2021/11/26 01:15:36;;;;;;;1.77;1.23;;;3.50;99.90;;;;;;5035216;28;20120;-80
2021/11/26 01:18:03;;;;;;;0.88;0.88;;;3.50;99.90;;;;;;5012689;28;20060;-81
2021/11/26 01:20:30;;;;;;;0.90;0.90;;;3.60;99.90;;;;;;5014177;28;20138;-80
2021/11/26 01:22:57;;;;;;;2.55;2.00;;;3.60;99.90;;;;;;5006686;28;20050;-81
2021/11/26 01:25:23;;;;;;;5.75;1.40;;;3.60;99.90;;;;;;5022645;28;20114;-82
2021/11/26 01:27:50;;;;;;;1.10;1.00;;;3.60;99.90;;;;;;5007610;28;20041;-80
2021/11/26 01:30:28;;;;;;;0.80;0.80;;;3.60;99.90;;;;;;5024713;28;20115;-80
2021/11/26 01:32:56;;;;;;;0.80;0.80;;;3.60;99.90;;;;;;5016085;28;20033;-80
2021/11/26 01:35:22;;;;;;;0.90;0.90;;;3.70;99.90;;;;;;5008567;28;20042;-82
2021/11/26 01:37:48;;;;;;;;;;;3.70;99.90;;;;;;5022779;28;20037;-78
2021/11/26 01:40:14;;;;;;;0.98;0.95;;;3.60;99.90;;;;;;5027721;28;19963;-78
2021/11/26 01:42:41;;;;;;;1.27;1.17;;;3.70;99.90;;;;;;5023867;28;20037;-80
2021/11/26 01:45:08;;;;;;;2.10;1.90;;;3.70;99.90;;;;;;5015985;28;20076;-79
2021/11/26 01:47:34;;;;;;;1.25;1.15;;;3.70;99.90;;;;;;5023996;28;20033;-79
2021/11/26 01:50:01;;;;;;;2.33;0.82;;;3.70;99.90;;;;;;5023872;28;20116;-78
2021/11/26 01:52:27;;;;;;;1.77;1.25;;;3.80;99.90;;;;;;5004373;28;20038;-79
2021/11/26 01:54:53;;;;;;;3.42;1.50;;;3.80;99.90;;;;;;5029539;28;20095;-79
2021/11/26 01:57:19;;;;;;;1.77;1.52;;;3.90;99.90;;;;;;5021731;28;20046;-81
2021/11/26 01:59:48;;;;;;;4.00;1.33;;;3.90;99.90;;;;;;5009699;28;20132;-80
2021/11/26 02:02:15;;;;;;;1.17;1.05;;;3.90;99.90;;;;;;5025550;28;20442;-80
2021/11/26 02:04:40;;;;;;;1.00;1.00;;;3.90;99.90;;;;;;5011583;28;20042;-81
2021/11/26 02:07:06;;;;;;;4.13;1.13;;;4.00;99.90;;;;;;5006315;28;20124;-79
2021/11/26 02:09:32;;;;;;;1.63;0.90;;;3.90;99.90;;;;;;5020660;28;20045;-78
2021/11/26 02:11:58;;;;;;;1.10;1.00;;;3.90;99.90;;;;;;5007646;28;20045;-79
2021/11/26 02:14:24;;;;;;;0.80;0.80;;;3.90;99.90;;;;;;5012320;28;20041;-77
2021/11/26 02:16:51;;;;;;;0.80;0.80;;;3.90;99.90;;;;;;4988011;28;20041;-79
2021/11/26 02:19:20;;;;;;;0.82;0.82;;;3.90;99.90;;;;;;5012091;28;20494;-79
2021/11/26 02:21:46;;;;;;;0.70;0.70;;;3.80;99.90;;;;;;5005103;28;20507;-80
2021/11/26 02:24:12;;;;;;;0.93;0.93;;;3.80;99.90;;;;;;4982107;28;20391;-79
2021/11/26 02:26:41;;;;;;;1.40;1.30;;;3.80;99.90;;;;;;5014241;28;20042;-79
2021/11/26 02:29:09;;;;;;;9.65;1.70;;;3.70;99.90;;;;;;4997664;28;20045;-82
2021/11/26 02:31:34;;;;;;;0.88;0.88;;;3.90;99.90;;;;;;5003785;28;20041;-80
2021/11/26 02:34:00;;;;;;;0.90;0.90;;;3.70;99.90;;;;;;5009919;28;20052;-78
2021/11/26 02:36:26;;;;;;;2.10;2.00;;;3.70;99.90;;;;;;5006647;28;20045;-80
2021/11/26 02:38:52;;;;;;;0.70;0.70;;;3.70;99.90;;;;;;4995576;28;20123;-82
2021/11/26 02:41:18;;;;;;;;;;;3.60;99.90;;;;;;4996558;28;20052;-78
2021/11/26 02:43:44;;;;;;;0.90;0.90;;;3.60;99.90;;;;;;4988773;28;19917;-80
2021/11/26 02:46:09;;;;;;;;;;;3.80;99.90;;;;;;5012119;28;20041;-79
2021/11/26 02:48:35;;;;;;;0.85;0.85;;;3.70;99.90;;;;;;5010471;28;19917;-81
2021/11/26 02:51:01;;;;;;;1.40;1.10;;;3.70;99.90;;;;;;4993017;28;20549;-80
2021/11/26 02:53:26;;;;;;;0.80;0.80;;;3.70;99.90;;;;;;5007813;28;20084;-82
2021/11/26 02:55:52;;;;;;;0.80;0.80;;;3.60;99.90;;;;;;5017526;28;20041;-83
2021/11/26 02:58:18;;;;;;;1.67;1.05;;;3.60;99.90;;;;;;5006695;28;20041;-79
2021/11/26 03:00:48;;;;;;;8.05;1.13;;;3.60;99.90;;;;;;4991558;28;20072;-80
2021/11/26 03:03:14;;;;;;;0.80;0.80;;;3.60;99.90;;;;;;5019580;28;20049;-79
2021/11/26 03:05:39;;;;;;;0.80;0.80;;;3.60;99.90;;;;;;4991797;28;20405;-81
2021/11/26 03:08:07;;;;;;;0.80;0.80;;;3.60;99.90;;;;;;4993688;28;20472;-78
2021/11/26 03:10:34;;;;;;;1.48;1.08;;;3.60;99.90;;;;;;5031041;28;20059;-79
2021/11/26 03:13:03;;;;;;;0.80;0.80;;;3.60;99.90;;;;;;5026458;28;20435;-81
2021/11/26 03:15:30;;;;;;;1.10;1.00;;;3.90;99.90;;;;;;5030396;28;20045;-77
2021/11/26 03:17:56;;;;;;;3.47;1.45;;;3.60;99.90;;;;;;5009126;28;20196;-76
2021/11/26 03:20:23;;;;;;;;;;;3.70;99.90;;;;;;5024541;28;20478;-80
2021/11/26 03:22:49;;;;;;;0.70;0.70;;;3.70;99.90;;;;;;5001409;28;20252;-78
2021/11/26 03:25:16;;;;;;;1.15;1.08;;;3.70;99.90;;;;;;5013084;28;20044;-79
2021/11/26 03:27:42;;;;;;;0.80;0.80;;;3.70;99.90;;;;;;5006532;28;20052;-80
2021/11/26 03:30:10;;;;;;;1.35;1.25;;;3.70;99.90;;;;;;5012793;28;20138;-79
2021/11/26 03:32:36;;;;;;;1.13;1.10;;;3.70;99.90;;;;;;5014882;28;20103;-79
2021/11/26 03:35:03;;;;;;;2.55;1.13;;;3.70;99.90;;;;;;4996296;28;20037;-78
2021/11/26 03:37:28;;;;;;;0.85;0.85;;;3.70;99.90;;;;;;5028155;28;20041;-78
2021/11/26 03:39:54;;;;;;;0.93;0.93;;;3.70;99.90;;;;;;5028138;28;20041;-79
2021/11/26 03:42:20;;;;;;;1.00;1.00;;;3.70;99.90;;;;;;5022811;28;20046;-78
2021/11/26 03:44:46;;;;;;;0.65;0.65;;;3.70;99.90;;;;;;5023730;28;20482;-81
2021/11/26 03:47:12;;;;;;;5.70;2.33;;;3.70;99.90;;;;;;4992961;28;20060;-80
2021/11/26 03:49:37;;;;;;;;;;;3.70;99.90;;;;;;5029689;28;20044;-79
2021/11/26 03:52:04;;;;;;;0.80;0.80;;;3.70;99.90;;;;;;5002438;28;20025;-78
2021/11/26 03:54:29;;;;;;;0.90;0.90;;;3.70;99.90;;;;;;5027133;28;20598;-76
2021/11/26 03:56:55;;;;;;;0.82;0.82;;;3.70;99.90;;;;;;5000473;28;20069;-81
2021/11/26 03:59:21;;;;;;;0.88;0.88;;;3.70;99.90;;;;;;5013021;28;20045;-77
2021/11/26 04:01:46;;;;;;;2.53;1.48;;;3.60;99.90;;;;;;5027954;28;20319;-79
2021/11/26 04:04:12;;;;;;;0.90;0.90;;;3.60;99.90;;;;;;5026200;28;20050;-79
2021/11/26 04:06:38;;;;;;;0.77;0.77;;;3.50;99.90;;;;;;5034067;28;20399;-78
2021/11/26 04:09:04;;;;;;;0.93;0.70;;;3.50;99.90;;;;;;5031467;28;20042;-78
2021/11/26 04:11:31;;;;;;;0.70;0.70;;;3.40;99.90;;;;;;5012772;28;20061;-78
2021/11/26 04:13:57;;;;;;;0.88;0.88;;;3.40;99.90;;;;;;5013418;28;20041;-81
2021/11/26 04:16:23;;;;;;;0.80;0.80;;;3.30;99.90;;;;;;5015394;28;20196;-79
2021/11/26 04:18:49;;;;;;;0.80;0.80;;;3.20;99.90;;;;;;5026205;28;20495;-80
2021/11/26 04:21:15;;;;;;;0.82;0.82;;;3.20;99.90;;;;;;5007421;28;20034;-78
2021/11/26 04:23:41;;;;;;;0.90;0.90;;;3.10;99.90;;;;;;5026087;28;20392;-77
2021/11/26 04:26:07;;;;;;;1.10;1.10;;;3.00;99.90;;;;;;5027040;28;20081;-77
2021/11/26 04:28:33;;;;;;;0.90;0.90;;;3.00;99.90;;;;;;5025831;28;20438;-78
2021/11/26 04:30:59;;;;;;;1.95;1.05;;;3.00;99.90;;;;;;5022838;28;20042;-76
2021/11/26 04:33:26;;;;;;;0.85;0.85;;;3.00;99.90;;;;;;5020842;28;20054;-80
2021/11/26 04:35:52;;;;;;;0.70;0.70;;;2.90;99.90;;;;;;5027404;28;20121;-78
2021/11/26 04:38:19;;;;;;;1.17;1.10;;;2.90;99.90;;;;;;5016375;28;20498;-77
2021/11/26 04:40:45;;;;;;;1.00;1.00;;;2.90;99.90;;;;;;5023264;28;20087;-76
2021/11/26 04:43:12;;;;;;;1.70;1.60;;;3.00;99.90;;;;;;5020270;28;20416;-79
2021/11/26 04:45:37;;;;;;;1.20;1.13;;;3.20;99.90;;;;;;5022079;28;20057;-79
2021/11/26 04:48:03;;;;;;;1.30;1.20;;;3.00;99.90;;;;;;5032241;28;20045;-82
2021/11/26 04:50:29;;;;;;;;;;;3.00;99.90;;;;;;5031388;28;20394;-79
2021/11/26 04:52:55;;;;;;;0.90;0.90;;;3.00;99.90;;;;;;5027830;28;19967;-79
2021/11/26 04:55:21;;;;;;;0.90;0.90;;;3.00;99.90;;;;;;5028608;28;20045;-79
2021/11/26 04:57:47;;;;;;;6.78;1.17;;;3.10;99.90;;;;;;5023705;28;20375;-78
2021/11/26 05:00:16;;;;;;;1.55;0.82;;;3.10;99.90;;;;;;5005287;28;20073;-76
2021/11/26 05:02:43;;;;;;;1.52;1.38;;;3.10;99.90;;;;;;5024788;28;20049;-80
2021/11/26 05:05:09;;;;;;;0.90;0.90;;;3.10;99.90;;;;;;5030093;28;20034;-80
2021/11/26 05:07:35;;;;;;;0.75;0.75;;;3.10;99.90;;;;;;5024462;28;20113;-77
2021/11/26 05:10:03;;;;;;;12.27;1.15;;;3.10;99.90;;;;;;5026794;28;20066;-77
2021/11/26 05:12:34;;;;;;;0.90;0.90;;;3.10;99.90;;;;;;5010667;28;20403;-79
2021/11/26 05:15:00;;;;;;;0.88;0.88;;;3.10;99.90;;;;;;5029695;28;20049;-79
2021/11/26 05:17:26;;;;;;;0.73;0.73;;;3.10;99.90;;;;;;5002339;28;20056;-84
2021/11/26 05:19:52;;;;;;;0.80;0.80;;;3.20;99.90;;;;;;4993229;28;20091;-79
2021/11/26 05:22:17;;;;;;;0.90;0.90;;;3.20;99.90;;;;;;5015694;28;20111;-81
2021/11/26 05:24:43;;;;;;;0.85;0.85;;;3.20;99.90;;;;;;5023990;28;20045;-78
2021/11/26 05:27:09;;;;;;;1.00;1.00;;;3.20;99.90;;;;;;5020470;28;20137;-78
2021/11/26 05:29:36;;;;;;;0.80;0.80;;;3.20;99.90;;;;;;5031528;28;20038;-81
2021/11/26 05:32:02;;;;;;;0.80;0.80;;;3.20;99.90;;;;;;5024324;28;20049;-79
2021/11/26 05:34:27;;;;;;;0.70;0.70;;;3.10;99.90;;;;;;5008541;28;20099;-80
2021/11/26 05:36:53;;;;;;;0.88;0.88;;;3.10;99.90;;;;;;5007439;28;20441;-82
2021/11/26 05:39:19;;;;;;;0.70;0.70;;;3.10;99.90;;;;;;5013437;28;20037;-80
2021/11/26 05:41:44;;;;;;;1.00;1.00;;;3.20;99.90;;;;;;5027428;28;20060;-79
2021/11/26 05:44:10;;;;;;;0.98;0.85;;;3.50;99.90;;;;;;5007804;28;20045;-82
2021/11/26 05:46:36;;;;;;;0.70;0.70;;;3.30;99.90;;;;;;5022489;28;20037;-80
2021/11/26 05:49:02;;;;;;;0.82;0.82;;;3.30;99.90;;;;;;5025024;28;20049;-79
2021/11/26 05:51:28;;;;;;;2.33;1.23;;;3.30;99.90;;;;;;5030874;28;20398;-82
2021/11/26 05:53:54;;;;;;;2.33;1.33;;;3.40;99.90;;;;;;5031490;28;20034;-79
2021/11/26 05:56:19;;;;;;;0.90;0.90;;;3.40;99.90;;;;;;5029385;28;20029;-80
2021/11/26 05:58:45;;;;;;;1.13;1.02;;;3.30;99.90;;;;;;5004114;28;20053;-80
2021/11/26 06:01:11;;;;;;;1.85;1.75;;;3.30;99.90;;;;;;5029384;28;20045;-77
2021/11/26 06:03:36;;;;;;;2.58;1.23;;;3.30;99.90;;;;;;5029238;28;20045;-79
2021/11/26 06:06:02;;;;;;;1.58;1.48;;;3.20;99.90;;;;;;5021109;28;20049;-80
2021/11/26 06:08:28;;;;;;;1.00;1.00;;;3.10;99.90;;;;;;5014837;28;20151;-78
2021/11/26 06:10:55;;;;;;;0.75;0.75;;;3.50;99.90;;;;;;5024652;28;20464;-80
2021/11/26 06:13:21;;;;;;;0.90;0.90;;;3.10;99.90;;;;;;5028377;28;20045;-79
2021/11/26 06:15:47;;;;;;;0.70;0.70;;;2.90;99.90;;;;;;5031950;28;20041;-80
2021/11/26 06:18:13;;;;;;;0.75;0.75;;;2.90;99.90;;;;;;5036927;28;20049;-78
2021/11/26 06:20:38;;;;;;;;;;;2.80;99.90;;;;;;5017017;28;20033;-79
2021/11/26 06:23:04;;;;;;;0.80;0.80;;;3.40;99.90;;;;;;5007248;28;20027;-80
2021/11/26 06:25:30;;;;;;;0.70;0.70;;;2.80;99.90;;;;;;5040292;28;20046;-80
2021/11/26 06:27:56;;;;;;;2.05;1.15;;;2.80;99.90;;;;;;5024189;28;20048;-80
2021/11/26 06:30:24;;;;;;;0.88;0.88;;;2.80;99.90;;;;;;4993721;28;20037;-80
2021/11/26 06:32:51;;;;;;;0.80;0.80;;;2.80;99.90;;;;;;5029373;28;20044;-77
2021/11/26 06:35:20;;;;;;;0.75;0.75;;;2.70;99.90;;;;;;5016202;28;20045;-77
2021/11/26 06:37:47;;;;;;;0.80;0.80;;;2.70;99.90;;;;;;5017277;28;20103;-78
2021/11/26 06:40:13;;;;;;;0.80;0.80;;;2.80;99.90;;;;;;5027399;28;20049;-80
2021/11/26 06:42:40;;;;;;;2.75;1.35;;;2.90;99.90;;;;;;5036700;28;20056;-81
2021/11/26 06:45:06;;;;;;;0.90;0.90;;;2.90;99.90;;;;;;5017892;28;20057;-79
2021/11/26 06:47:33;;;;;;;0.73;0.73;;;2.90;99.90;;;;;;5031910;28;20084;-81
2021/11/26 06:49:59;;;;;;;;;;;2.90;99.90;;;;;;5026911;28;20044;-81
2021/11/26 06:52:24;;;;;;;0.80;0.80;;;3.00;99.90;;;;;;5023236;28;19917;-79
2021/11/26 06:54:50;;;;;;;1.00;0.82;;;3.00;99.90;;;;;;5030329;28;20172;-80
2021/11/26 06:57:16;;;;;;;1.25;1.15;;;2.90;99.90;;;;;;5023828;28;20053;-78
2021/11/26 06:59:41;;;;;;;0.80;0.80;;;3.00;99.90;;;;;;4998044;28;20041;-79
2021/11/26 07:02:08;;;;;;;0.70;0.70;;;2.90;99.90;;;;;;5026137;28;20042;-79
2021/11/26 07:04:34;;;;;;;1.08;1.05;;;2.90;99.90;;;;;;5030803;28;20037;-81
2021/11/26 07:07:02;;;;;;;1.63;1.52;;;2.90;99.90;;;;;;5043134;28;20398;-77
2021/11/26 07:09:27;;;;;;;1.35;1.25;;;2.90;99.90;;;;;;5024648;28;20116;-80
2021/11/26 07:11:53;;;;;;;0.85;0.85;;;2.90;99.90;;;;;;5007424;28;20124;-79
2021/11/26 07:14:19;;;;;;;3.13;1.45;;;2.90;99.90;;;;;;5023750;28;20041;-79
2021/11/26 07:16:45;;;;;;;1.63;0.90;;;3.00;99.90;;;;;;5036826;28;20150;-79
2021/11/26 07:19:10;;;;;;;1.13;1.00;;;3.00;99.90;;;;;;5027819;28;20088;-80
2021/11/26 07:21:36;;;;;;;1.75;1.65;;;2.90;99.90;;;;;;5016837;28;20051;-80
2021/11/26 07:24:02;;;;;;;1.15;1.05;;;2.90;99.90;;;;;;5017122;28;20122;-77
2021/11/26 07:26:28;;;;;;;1.70;1.55;;;2.90;99.90;;;;;;5027131;28;20055;-80
2021/11/26 07:28:54;;;;;;;1.90;1.40;;;2.90;99.90;;;;;;5030115;28;20037;-80
2021/11/26 07:31:20;;;;;;;0.93;0.93;;;3.00;99.90;;;;;;5013381;28;20072;-80
2021/11/26 07:33:46;;;;;;;1.20;1.13;;;2.90;99.90;;;;;;5037753;28;20041;-78
2021/11/26 07:36:12;;;;;;;1.10;1.08;;;2.90;99.90;;;;;;5039607;28;20050;-81
2021/11/26 07:38:37;;;;;;;1.75;1.30;;;2.90;99.90;;;;;;5000552;28;20052;-81
2021/11/26 07:41:03;;;;;;;1.25;1.10;;;2.90;99.90;;;;;;5028669;28;20399;-81
2021/11/26 07:43:30;;;;;;;1.13;1.02;;;2.90;99.90;;;;;;5007335;28;20478;-78
2021/11/26 07:45:57;;;;;;;1.40;1.30;;;3.10;99.90;;;;;;5026541;28;20483;-80
2021/11/26 07:48:23;;;;;;;1.35;1.20;;;3.00;99.90;;;;;;5029226;28;20064;-78
2021/11/26 07:50:49;;;;;;;8.20;3.33;;;3.00;99.90;;;;;;5012386;28;20047;-80
2021/11/26 07:53:18;;;;;;;1.38;1.27;;;3.10;99.90;;;;;;5024352;28;20040;-80
2021/11/26 07:55:44;;;;;;;3.65;1.98;;;3.10;99.90;;;;;;5009425;28;20038;-78
2021/11/26 07:58:11;;;;;;;0.90;0.90;;;3.20;99.90;;;;;;5029004;28;20068;-79
2021/11/26 08:00:36;;;;;;;1.73;1.63;;;3.20;99.90;;;;;;5026178;28;20045;-78
2021/11/26 08:03:02;;;;;;;1.80;1.25;;;3.20;99.90;;;;;;5032775;28;20136;-78
2021/11/26 08:05:32;;;;;;;1.50;1.40;;;3.20;99.90;;;;;;5031669;28;20442;-79
2021/11/26 08:07:59;;;;;;;1.25;1.20;;;3.30;99.90;;;;;;5019228;28;20037;-79
2021/11/26 08:10:25;;;;;;;1.17;1.10;;;3.30;99.90;;;;;;5017737;28;20091;-80
2021/11/26 08:12:51;;;;;;;0.93;0.93;;;3.30;99.90;;;;;;5012567;28;20133;-85
2021/11/26 08:15:18;;;;;;;0.90;0.90;;;3.60;99.90;;;;;;5009140;28;20566;-85
2021/11/26 08:17:44;;;;;;;1.60;1.30;;;3.40;99.90;;;;;;5020364;28;20099;-83
2021/11/26 08:20:11;;;;;;;0.77;0.77;;;3.60;99.90;;;;;;5020509;28;20461;-83
2021/11/26 08:22:37;;;;;;;3.65;1.45;;;3.40;99.90;;;;;;5023166;28;20046;-83
2021/11/26 08:25:04;;;;;;;2.30;1.42;;;3.40;99.90;;;;;;5036443;28;20052;-83
2021/11/26 08:27:30;;;;;;;1.67;1.58;;;3.40;99.90;;;;;;5025734;28;20614;-82
2021/11/26 08:29:56;;;;;;;1.95;1.10;;;3.50;99.90;;;;;;5030190;28;20041;-84
2021/11/26 08:32:22;;;;;;;1.73;1.42;;;3.50;99.90;;;;;;5001117;28;20464;-82
2021/11/26 08:34:47;;;;;;;1.70;1.35;;;3.60;99.90;;;;;;5040592;28;20049;-82
2021/11/26 08:37:13;;;;;;;1.15;1.10;;;3.50;99.90;;;;;;4997649;28;20104;-85
2021/11/26 08:39:39;;;;;;;2.50;0.82;;;3.60;99.90;;;;;;5031999;28;20065;-85
2021/11/26 08:42:05;;;;;;;1.45;1.35;;;3.60;99.90;;;;;;5020441;28;20103;-85
2021/11/26 08:44:32;;;;;;;1.33;1.00;;;3.60;99.90;;;;;;5044432;28;20506;-82
2021/11/26 08:46:58;;;;;;;9.73;1.15;;;3.60;99.90;;;;;;5020624;28;20546;-83
2021/11/26 08:49:24;;;;;;;1.60;1.50;;;3.70;99.90;;;;;;5001111;28;20037;-83
2021/11/26 08:51:51;;;;;;;2.28;1.48;;;3.60;99.90;;;;;;5042230;28;20040;-83
2021/11/26 08:54:21;;;;;;;0.90;0.90;;;3.70;99.90;;;;;;5005430;28;20052;-84
2021/11/26 08:56:47;;;;;;;1.25;1.15;;;3.70;99.90;;;;;;5017209;28;20236;-83
2021/11/26 08:59:13;;;;;;;1.50;1.27;;;3.80;99.90;;;;;;5016127;28;20068;-83
2021/11/26 09:01:38;;;;;;;1.35;1.25;;;4.00;99.90;;;;;;5018890;28;20037;-83
2021/11/26 09:04:04;;;;;;;2.10;1.50;;;3.70;99.90;;;;;;5025024;28;20044;-82
2021/11/26 09:06:30;;;;;;;1.40;1.08;;;3.80;99.90;;;;;;4985020;28;20057;-85
2021/11/26 09:08:56;;;;;;;5.80;1.98;;;3.80;99.90;;;;;;4999166;28;20065;-84
2021/11/26 09:11:22;;;;;;;1.65;1.55;;;3.80;99.90;;;;;;4995315;28;20119;-84
2021/11/26 09:13:47;;;;;;;1.20;1.10;;;3.80;99.90;;;;;;5011328;28;20040;-85
2021/11/26 09:16:13;;;;;;;1.77;1.55;;;3.80;99.90;;;;;;4998199;28;20137;-82
2021/11/26 09:18:39;;;;;;;4.22;1.25;;;3.90;99.90;;;;;;5031926;28;20144;-81
2021/11/26 09:21:05;;;;;;;1.58;1.25;;;3.90;99.90;;;;;;5028622;28;20126;-85
2021/11/26 09:23:32;;;;;;;1.25;1.15;;;4.10;99.90;;;;;;4997110;28;20434;-82
2021/11/26 09:25:58;;;;;;;0.98;0.98;;;4.00;99.90;;;;;;5035195;28;20059;-82
2021/11/26 09:28:24;;;;;;;0.70;0.70;;;4.30;99.90;;;;;;5043668;28;20064;-85
2021/11/26 09:30:50;;;;;;;1.25;1.17;;;4.00;99.90;;;;;;5027468;28;20045;-85
2021/11/26 09:33:20;;;;;;;2.65;1.25;;;4.00;99.90;;;;;;5026131;28;20495;-84
2021/11/26 09:35:46;;;;;;;2.03;1.05;;;4.10;99.90;;;;;;5038669;28;20055;-83
2021/11/26 09:38:13;;;;;;;6.13;1.83;;;4.10;99.90;;;;;;5029135;28;20466;-82
2021/11/26 09:40:39;;;;;;;2.33;1.65;;;4.10;99.90;;;;;;5016858;28;20072;-82
2021/11/26 09:43:06;;;;;;;1.08;1.02;;;4.20;99.90;;;;;;4998494;28;20079;-85
2021/11/26 09:45:33;;;;;;;1.70;1.60;;;4.20;99.90;;;;;;5017330;28;20042;-84
2021/11/26 09:47:59;;;;;;;1.35;1.25;;;4.30;99.90;;;;;;5015827;28;20068;-84
2021/11/26 09:50:28;;;;;;;;;;;4.30;99.90;;;;;;5010563;28;20098;-83
2021/11/26 09:53:08;;;;;;;1.27;1.20;;;4.30;99.90;;;;;;5027795;28;19917;-84
2021/11/26 09:55:33;;;;;;;2.28;1.20;;;4.30;99.90;;;;;;5027522;28;20048;-83
2021/11/26 09:57:59;;;;;;;2.40;1.67;;;4.40;99.90;;;;;;5012367;28;20046;-81
2021/11/26 10:00:25;;;;;;;1.27;1.20;;;4.40;99.90;;;;;;5003601;28;20033;-85
2021/11/26 10:02:56;;;;;;;3.22;2.30;;;4.40;99.90;;;;;;5016765;28;20073;-82
2021/11/26 10:05:23;;;;;;;1.02;1.00;;;4.40;99.90;;;;;;5010618;28;20128;-83
2021/11/26 10:07:51;;;;;;;14.60;1.10;;;4.50;99.90;;;;;;5020486;28;20420;-81
2021/11/26 10:10:24;;;;;;;2.25;2.05;;;4.50;99.90;;;;;;4999639;28;20053;-85
2021/11/26 10:13:01;;;;;;;2.25;1.95;;;4.60;99.90;;;;;;4998035;28;20061;-84
2021/11/26 10:15:42;;;;;;;0.90;0.90;;;4.60;99.90;;;;;;5044506;28;20131;-85
2021/11/26 10:18:16;;;;;;;1.40;1.30;;;4.70;99.90;;;;;;5033899;28;20064;-82
2021/11/26 10:20:59;;;;;;;2.53;1.52;;;4.70;99.90;;;;;;5010754;28;20437;-84
2021/11/26 10:23:28;;;;;;;1.05;1.00;;;4.70;99.90;;;;;;5034066;28;20042;-82
2021/11/26 10:25:57;;;;;;;2.60;1.30;;;4.70;99.90;;;;;;5024587;28;20466;-85
2021/11/26 10:28:23;;;;;;;1.38;1.17;;;4.80;99.90;;;;;;5037778;28;20068;-80
2021/11/26 10:30:49;;;;;;;1.63;1.15;;;4.80;99.90;;;;;;4999984;28;20076;-84
2021/11/26 10:33:17;;;;;;;;;;;4.80;99.90;;;;;;5015749;28;20448;-84
2021/11/26 10:35:43;;;;;;;3.05;2.75;;;4.80;99.90;;;;;;5031976;28;19967;-82
2021/11/26 10:38:16;;;;;;;16.67;1.73;;;4.80;99.90;;;;;;5016286;28;20041;-83
2021/11/26 10:40:44;;;;;;;0.80;0.80;;;4.90;99.90;;;;;;5039826;28;20444;-83
2021/11/26 10:43:17;;;;;;;1.60;1.08;;;4.80;99.90;;;;;;5036712;28;20060;-84
2021/11/26 10:46:04;;;;;;;1.10;1.00;;;4.80;99.90;;;;;;5030935;28;20045;-81
2021/11/26 10:51:41;;;;;;;1.73;1.63;;;4.90;99.90;;;;;;5028729;28;20131;-83
2021/11/26 10:59:42;;;;;;;1.45;1.35;;;4.90;99.90;;;;;;5037964;28;20041;-81
2021/11/26 11:02:09;;;;;;;1.50;1.40;;;4.90;99.90;;;;;;5051067;28;20045;-81
2021/11/26 11:04:37;;;;;;;2.38;1.10;;;4.90;99.90;;;;;;5018040;28;20041;-80
2021/11/26 11:07:06;;;;;;;1.33;1.23;;;4.90;99.90;;;;;;5044659;28;20130;-82
2021/11/26 11:09:41;;;;;;;0.95;0.90;;;5.00;99.90;;;;;;5039397;28;20069;-79
2021/11/26 11:12:08;;;;;;;3.72;1.60;;;5.00;99.90;;;;;;5038901;28;20065;-81
2021/11/26 11:14:34;;;;;;;1.40;1.15;;;5.00;99.90;;;;;;5042837;28;20120;-80
2021/11/26 11:17:00;;;;;;;1.00;0.98;;;5.00;99.90;;;;;;5031738;28;20128;-82
2021/11/26 11:19:27;;;;;;;1.90;1.67;;;5.00;99.90;;;;;;5025454;28;20563;-79
2021/11/26 11:21:56;;;;;;;2.72;1.27;;;5.10;99.90;;;;;;5041227;28;20124;-81
2021/11/26 11:24:23;;;;;;;4.40;2.03;;;5.10;99.90;;;;;;5029257;28;20052;-83
2021/11/26 11:26:51;;;;;;;1.85;1.70;;;5.20;99.90;;;;;;5030234;28;20525;-80
2021/11/26 11:29:26;;;;;;;1.23;1.13;;;5.70;99.90;;;;;;5031092;28;20029;-84
2021/11/26 11:31:56;;;;;;;2.08;1.20;;;5.30;99.90;;;;;;5031718;28;20061;-81
2021/11/26 11:34:25;;;;;;;3.35;1.60;;;5.30;99.90;;;;;;5024314;28;20434;-84
2021/11/26 11:36:56;;;;;;;1.40;1.30;;;5.40;99.90;;;;;;5022805;28;20045;-80
2021/11/26 11:39:22;;;;;;;1.60;1.40;;;5.30;99.90;;;;;;5014754;28;20033;-83
2021/11/26 11:41:54;;;;;;;3.25;2.05;;;5.50;99.90;;;;;;5015500;28;20497;-83
2021/11/26 11:44:32;;;;;;;5.57;3.28;;;5.40;99.90;;;;;;5028177;28;20433;-81
2021/11/26 11:47:01;;;;;;;1.58;1.48;;;5.40;99.90;;;;;;5026001;28;20045;-81
2021/11/26 11:49:32;;;;;;;1.63;1.52;;;5.60;99.90;;;;;;5025311;28;20052;-82
2021/11/26 11:52:00;;;;;;;2.17;1.10;;;5.40;99.90;;;;;;5011601;28;20045;-79
2021/11/26 11:54:46;;;;;;;8.90;2.42;;;5.60;99.90;;;;;;5021647;28;20034;-82
2021/11/26 11:57:24;;;;;;;3.05;2.00;;;5.70;99.90;;;;;;5007033;28;20047;-84
2021/11/26 11:59:51;;;;;;;3.85;1.58;;;5.50;99.90;;;;;;5021602;28;20399;-82
2021/11/26 12:02:27;;;;;;;1.40;1.30;;;5.70;99.90;;;;;;4982872;28;20144;-81
2021/11/26 12:04:55;;;;;;;1.50;1.40;;;5.70;99.90;;;;;;5009496;28;20041;-82
2021/11/26 12:07:29;;;;;;;2.28;1.50;;;;;;;;;;5024848;28;20049;-83
2021/11/26 12:10:04;;;;;;;2.13;1.92;;;;;;;;;;5025884;28;20383;-82
2021/11/26 12:12:31;;;;;;;1.65;1.55;;;;;;;;;;5027366;28;20057;-82
2021/11/26 12:14:58;;;;;;;1.58;1.48;;;6.00;99.90;;;;;;5014140;28;20068;-81
2021/11/26 12:17:36;;;;;;;1.83;1.45;;;6.00;99.90;;;;;;5018247;28;20053;-81
2021/11/26 12:20:21;;;;;;;3.53;1.80;;;;;;;;;;5021497;28;20124;-83
2021/11/26 12:22:54;;;;;;;2.55;1.35;;;;;;;;;;5026365;28;20107;-81
2021/11/26 12:25:27;;;;;;;3.45;1.50;;;;;;;;;;5029953;28;20120;-84
2021/11/26 12:27:57;;;;;;;4.50;2.00;;;;;;;;;;5047926;28;20044;-82
2021/11/26 12:30:24;;;;;;;1.90;1.73;;;;;;;;;;5021676;28;20045;-81
2021/11/26 12:32:50;;;;;;;2.03;1.65;;;;;;;;;;5015415;28;20045;-83
2021/11/26 12:35:16;;;;;;;;;;;;;;;;;;5017854;28;20121;-82
2021/11/26 12:37:44;;;;;;;1.88;1.55;;;;;;;;;;5002182;28;19974;-84
2021/11/26 12:40:12;;;;;;;2.33;1.95;;;;;;;;;;5028962;28;20568;-83
2021/11/26 12:42:39;;;;;;;4.25;2.67;;;;;;;;;;5027095;28;20124;-82
2021/11/26 12:45:07;;;;;;;5.47;2.35;;;;;;;;;;5029320;28;20049;-81
2021/11/26 12:47:36;;;;;;;6.00;2.75;;;5.60;99.90;;;;;;5012840;28;20064;-83
2021/11/26 12:53:09;;;;;;;2.33;1.90;;;;;;;;;;5033991;28;20038;-82
2021/11/26 12:55:56;;;;;;;4.55;3.03;;;5.50;99.90;;;;;;5030459;28;20168;-82
2021/11/26 12:58:24;;;;;;;3.67;1.85;;;5.50;99.90;;;;;;5016679;28;20053;-80
2021/11/26 13:00:54;;;;;;;1.45;1.30;;;;;;;;;;5032017;28;20044;-79
2021/11/26 13:03:20;;;;;;;4.78;2.40;;;5.50;99.90;;;;;;5009824;28;20045;-80
2021/11/26 13:05:54;;;;;;;2.20;2.05;;;5.60;99.90;;;;;;5048409;28;20064;-80
2021/11/26 13:08:20;;;;;;;2.72;2.22;;;5.60;99.90;;;;;;5027519;28;20114;-79
2021/11/26 13:10:46;;;;;;;7.85;2.90;;;5.60;99.90;;;;;;5007048;28;20034;-80
2021/11/26 13:13:14;;;;;;;;;;;;;;;;;;5029845;28;20124;-81
2021/11/26 13:15:40;;;;;;;;;;;;;;;;;;5030450;28;19952;-80
2021/11/26 13:18:17;;;;;;;2.40;1.85;;;5.60;99.90;;;;;;5032790;28;19990;-81
2021/11/26 13:20:48;;;;;;;1.85;1.75;;;;;;;;;;5012057;28;20116;-80